L71 weather

California City Municipal Airport
California City, California, United States

Public forecast

Using degrees Fahrenheit for public forecast. Weather courtesy of forecast.io.

METAR (pilot weather report)

Closest report is Mojave Airport, 8.6 nm (16.0 km) SW. Retrieved 2019/06/25 14:40 UTC (15 minutes ago):

KMHV 251440Z AUTO 30017G25KT 10SM CLR 26/04 A2984 RMK A01

TAF (pilot weather forecast)

Closest forecast is Edwards Air Force Base, 16.1 nm (29.9 km) SSE. Retrieved 2019/06/25 10:00 UTC (5 hours ago):

TAF TAF KEDW 251010Z 2510/2616 22009KT 9999 SCT250 QNH2978INS BECMG 2516/2517 23012G18KT 9999 SCT250 QNH2981INS BECMG 2519/2520 24015G25KT 9999 SCT250 520009 QNH2980INS BECMG 2521/2522 23025G35KT 9999 SCT250 530009 QNH2980INS BECMG 2601/2602 23015G25KT 9999 FEW250 520009 QNH2981INS BECMG 2615/2616 23012G18KT 9999 FEW250 QNH2980INS TX35/2523Z TN17/2512Z